Time;durP1;ratioP1;P1;durP2;ratioP2;P2;SDS_P1;SDS_P2;PMS_P1;PMS_P2;Temp;Humidity;BMP_temperature;BMP_pressure;BME280_temperature;BME280_humidity;BME280_pressure;Samples;Min_cycle;Max_cycle;Signal;HPM_P1;HPM_P2
2022/12/31 00:01:50;;;;;;;20.17;7.50;;;28.30;85.50;;;;;;5103952;28;20028;-56
2022/12/31 00:04:17;;;;;;;28.20;7.75;;;28.20;85.30;;;;;;5104069;28;20024;-57
2022/12/31 00:06:44;;;;;;;25.25;7.72;;;28.20;85.30;;;;;;5104069;28;20247;-54
2022/12/31 00:09:12;;;;;;;19.75;7.70;;;28.20;85.00;;;;;;5113958;28;20024;-55
2022/12/31 00:11:39;;;;;;;19.60;6.63;;;28.20;84.70;;;;;;5119648;28;20124;-53
2022/12/31 00:14:06;;;;;;;18.15;7.38;;;28.20;84.90;;;;;;5128295;28;20031;-54
2022/12/31 00:16:39;;;;;;;18.67;7.80;;;28.20;84.70;;;;;;5131499;28;20275;-55
2022/12/31 00:19:07;;;;;;;22.58;7.47;;;28.10;84.30;;;;;;5122168;28;20027;-55
2022/12/31 00:21:35;;;;;;;18.52;7.88;;;28.10;84.10;;;;;;5127985;27;20015;-54
2022/12/31 00:24:03;;;;;;;16.08;6.95;;;28.10;84.10;;;;;;5142471;27;20055;-55
2022/12/31 00:26:31;;;;;;;15.20;7.40;;;28.00;83.70;;;;;;5128688;28;20308;-56
2022/12/31 00:29:00;;;;;;;14.13;7.18;;;28.00;84.00;;;;;;5128217;28;20031;-54
2022/12/31 00:31:29;;;;;;;19.95;7.50;;;28.00;83.70;;;;;;5126595;28;20320;-57
2022/12/31 00:33:58;;;;;;;17.65;7.07;;;28.00;83.70;;;;;;5126742;28;20357;-57
2022/12/31 00:36:31;;;;;;;14.00;7.07;;;28.00;83.60;;;;;;5126583;28;20065;-56
2022/12/31 00:39:00;;;;;;;18.75;7.00;;;28.00;83.20;;;;;;5108374;28;20011;-57
2022/12/31 00:41:28;;;;;;;24.58;6.93;;;28.00;83.00;;;;;;5126356;28;20035;-55
2022/12/31 00:43:55;;;;;;;19.48;6.53;;;28.00;83.30;;;;;;5126256;28;20212;-54
2022/12/31 00:46:22;;;;;;;15.77;6.80;;;28.00;82.90;;;;;;5126523;28;20028;-58
2022/12/31 00:48:49;;;;;;;20.25;7.80;;;27.90;82.50;;;;;;5126616;28;20236;-54
2022/12/31 00:51:17;;;;;;;15.02;7.00;;;27.90;82.60;;;;;;5126343;28;20048;-56
2022/12/31 00:53:44;;;;;;;14.45;6.75;;;27.90;82.20;;;;;;5126437;28;20035;-58
2022/12/31 00:56:17;;;;;;;14.05;6.80;;;27.90;82.00;;;;;;5127884;28;20019;-56
2022/12/31 00:58:43;;;;;;;;;;;27.90;81.90;;;;;;5110411;28;20175;-57
2022/12/31 01:01:17;;;;;;;24.10;7.93;;;27.90;81.60;;;;;;5128561;28;19907;-58
2022/12/31 01:03:44;;;;;;;34.38;9.32;;;27.90;81.60;;;;;;5109553;28;20077;-57
2022/12/31 01:06:12;;;;;;;35.03;9.43;;;27.80;81.40;;;;;;5128006;28;20036;-58
2022/12/31 01:08:40;;;;;;;43.38;10.23;;;27.80;81.40;;;;;;5128019;28;20027;-57
2022/12/31 01:11:20;;;;;;;39.58;11.00;;;27.80;81.10;;;;;;5127772;28;20023;-58
2022/12/31 01:13:51;;;;;;;29.95;11.00;;;27.80;81.30;;;;;;5128257;28;20020;-57
2022/12/31 01:16:21;;;;;;;31.33;13.65;;;27.80;81.50;;;;;;5128622;28;20065;-57
2022/12/31 01:18:48;;;;;;;36.03;14.80;;;27.80;81.30;;;;;;5128253;28;20353;-57
2022/12/31 01:21:15;;;;;;;27.10;13.30;;;27.80;81.20;;;;;;5127912;28;20032;-57
2022/12/31 01:23:42;;;;;;;28.63;12.48;;;27.80;80.60;;;;;;5127539;28;20023;-57
2022/12/31 01:26:11;;;;;;;30.13;12.10;;;27.80;80.50;;;;;;5127420;28;20024;-57
2022/12/31 01:28:37;;;;;;;19.63;12.30;;;27.80;80.40;;;;;;5127720;28;20279;-56
2022/12/31 01:31:06;;;;;;;20.67;12.38;;;27.80;80.30;;;;;;5127846;28;20023;-56
2022/12/31 01:33:33;;;;;;;24.13;11.55;;;27.80;80.10;;;;;;5127202;28;20096;-57
2022/12/31 01:36:26;;;;;;;19.15;9.63;;;27.80;80.40;;;;;;5128451;28;20035;-56
2022/12/31 01:38:58;;;;;;;22.20;9.15;;;27.80;80.30;;;;;;5127311;28;20151;-56
2022/12/31 01:41:28;;;;;;;20.48;8.60;;;27.70;80.20;;;;;;5127214;28;20035;-56
2022/12/31 01:44:19;;;;;;;20.42;8.10;;;27.70;79.80;;;;;;5127535;27;20041;-55
2022/12/31 01:46:51;;;;;;;17.55;7.50;;;27.50;79.00;;;;;;5128421;27;20098;-54
2022/12/31 01:49:53;;;;;;;11.68;6.57;;;27.20;79.70;;;;;;5126475;27;20027;-53
2022/12/31 01:52:37;;;;;;;16.35;5.72;;;26.90;80.30;;;;;;5121066;27;20062;-51
2022/12/31 01:55:22;;;;;;;26.83;6.45;;;26.80;80.90;;;;;;5123978;27;20026;-56
2022/12/31 01:57:52;;;;;;;12.82;5.90;;;26.60;81.20;;;;;;5126721;28;20031;-58
2022/12/31 02:00:19;;;;;;;17.45;5.88;;;26.50;81.60;;;;;;5138968;27;20023;-52
2022/12/31 02:02:46;;;;;;;13.82;6.00;;;26.40;81.60;;;;;;5147211;27;20023;-53
2022/12/31 02:05:25;;;;;;;16.67;9.00;;;26.30;81.60;;;;;;5147424;27;20023;-55
2022/12/31 02:07:52;;;;;;;26.77;17.45;;;26.30;82.00;;;;;;5137236;27;20089;-53
2022/12/31 02:10:19;;;;;;;27.08;11.25;;;26.30;82.10;;;;;;5117473;28;20032;-55
2022/12/31 02:12:47;;;;;;;22.58;10.02;;;26.20;82.30;;;;;;5134174;27;20031;-54
2022/12/31 02:15:13;;;;;;;18.67;11.00;;;26.20;82.30;;;;;;5147424;27;20034;-53
2022/12/31 02:17:58;;;;;;;17.10;10.23;;;26.30;82.40;;;;;;5132289;27;20024;-52
2022/12/31 02:20:53;;;;;;;18.10;9.70;;;26.40;82.00;;;;;;5119873;28;20038;-52
2022/12/31 02:23:54;;;;;;;12.18;8.65;;;26.60;81.60;;;;;;5126418;28;20328;-52
2022/12/31 02:26:30;;;;;;;13.38;8.45;;;26.70;80.90;;;;;;5126361;28;20055;-52
2022/12/31 02:29:19;;;;;;;14.23;7.78;;;26.90;80.50;;;;;;5126391;28;20288;-52
2022/12/31 02:32:01;;;;;;;16.27;7.65;;;26.90;80.40;;;;;;5141834;27;20031;-52
2022/12/31 02:34:36;;;;;;;;;;;27.00;80.30;;;;;;5128734;27;20023;-52
2022/12/31 02:37:07;;;;;;;12.75;7.03;;;27.10;80.30;;;;;;5146664;27;19912;-53
2022/12/31 02:39:35;;;;;;;17.48;7.53;;;27.10;79.70;;;;;;5126417;27;20026;-51
2022/12/31 02:42:01;;;;;;;17.33;7.25;;;27.10;79.70;;;;;;5110361;28;20036;-51
2022/12/31 02:44:35;;;;;;;11.15;6.50;;;27.10;79.40;;;;;;5098088;28;20024;-52
2022/12/31 02:47:08;;;;;;;14.93;6.38;;;27.20;79.40;;;;;;5106006;28;20096;-52
2022/12/31 02:49:48;;;;;;;7.95;6.13;;;27.20;79.70;;;;;;5109557;28;20024;-50
2022/12/31 02:52:28;;;;;;;16.75;7.43;;;27.20;79.30;;;;;;5125506;28;20047;-49
2022/12/31 02:55:13;;;;;;;16.67;7.90;;;27.20;79.50;;;;;;5126029;28;20023;-53
2022/12/31 02:57:50;;;;;;;12.38;8.15;;;27.30;79.40;;;;;;5105116;28;20330;-54
2022/12/31 03:03:04;;;;;;;11.25;6.95;;;27.30;79.10;;;;;;5109263;28;20035;-52
2022/12/31 03:05:35;;;;;;;11.23;7.05;;;27.30;78.80;;;;;;5112715;28;20028;-52
2022/12/31 03:08:02;;;;;;;9.32;6.32;;;27.30;78.90;;;;;;5113837;27;20217;-50
2022/12/31 03:10:29;;;;;;;11.55;6.63;;;27.30;78.80;;;;;;5120362;28;20031;-49
2022/12/31 03:12:55;;;;;;;10.15;5.97;;;27.30;78.50;;;;;;5125238;28;20034;-50
2022/12/31 03:15:22;;;;;;;11.27;6.82;;;27.30;78.50;;;;;;5125690;28;20062;-51
2022/12/31 03:17:57;;;;;;;14.45;8.55;;;27.30;78.70;;;;;;5124980;28;20042;-54
2022/12/31 03:23:39;;;;;;;14.05;8.43;;;27.30;78.00;;;;;;5123655;27;20038;-52
2022/12/31 03:26:09;;;;;;;14.35;8.65;;;27.30;78.00;;;;;;5123550;28;20109;-51
2022/12/31 03:28:38;;;;;;;12.13;8.77;;;27.30;78.30;;;;;;5124761;28;20047;-49
2022/12/31 03:31:05;;;;;;;11.45;7.95;;;27.30;78.20;;;;;;5125113;28;20116;-51
2022/12/31 03:33:41;;;;;;;13.00;7.95;;;27.30;78.30;;;;;;5124730;28;20023;-51
2022/12/31 03:36:13;;;;;;;12.73;8.13;;;27.30;78.00;;;;;;5124171;28;20027;-51
2022/12/31 03:38:40;;;;;;;10.02;7.53;;;27.30;78.10;;;;;;5122490;28;20057;-52
2022/12/31 03:41:10;;;;;;;12.40;7.28;;;27.30;78.20;;;;;;5122665;28;20032;-51
2022/12/31 03:43:36;;;;;;;12.88;7.70;;;27.30;78.00;;;;;;5116375;28;20039;-50
2022/12/31 03:46:03;;;;;;;12.15;7.05;;;27.30;77.90;;;;;;5123016;28;20076;-52
2022/12/31 03:48:30;;;;;;;14.60;7.70;;;27.30;78.00;;;;;;5123499;28;20035;-51
2022/12/31 03:50:57;;;;;;;10.70;7.20;;;27.30;78.30;;;;;;5124032;28;20027;-50
2022/12/31 03:53:23;;;;;;;9.10;6.40;;;27.30;77.90;;;;;;5123969;28;20362;-54
2022/12/31 03:55:52;;;;;;;12.82;6.63;;;27.30;78.10;;;;;;5123860;28;20316;-52
2022/12/31 03:58:19;;;;;;;12.38;6.22;;;27.30;77.80;;;;;;5124551;28;20039;-53
2022/12/31 04:00:47;;;;;;;10.02;6.15;;;27.20;77.80;;;;;;5123975;28;20326;-52
2022/12/31 04:03:15;;;;;;;12.93;7.55;;;27.20;78.00;;;;;;5124440;28;20036;-53
2022/12/31 04:05:41;;;;;;;13.65;7.30;;;27.20;77.70;;;;;;5124965;28;20015;-52
2022/12/31 04:08:08;;;;;;;11.95;7.30;;;27.30;78.10;;;;;;5124274;28;20024;-52
2022/12/31 04:10:34;;;;;;;15.57;7.45;;;27.20;77.70;;;;;;5123911;28;20043;-52
2022/12/31 04:13:03;;;;;;;11.52;7.60;;;27.30;78.00;;;;;;5124522;28;20216;-52
2022/12/31 04:15:29;;;;;;;12.45;6.90;;;27.20;77.60;;;;;;5124671;28;20019;-52
2022/12/31 04:17:57;;;;;;;13.77;6.60;;;27.20;77.70;;;;;;5124165;28;20032;-52
2022/12/31 04:20:24;;;;;;;13.02;6.03;;;27.30;78.10;;;;;;5124749;28;20033;-52
2022/12/31 04:22:50;;;;;;;11.50;7.07;;;27.30;77.80;;;;;;5124288;28;20043;-51
2022/12/31 04:25:20;;;;;;;10.05;6.53;;;27.20;77.80;;;;;;5124764;28;20084;-51
2022/12/31 04:27:47;;;;;;;12.23;7.07;;;27.20;77.50;;;;;;5124341;28;20346;-53
2022/12/31 04:30:14;;;;;;;11.27;6.50;;;27.20;77.70;;;;;;5124544;28;20024;-52
2022/12/31 04:32:41;;;;;;;9.93;6.35;;;27.20;77.80;;;;;;5124394;28;20036;-51
2022/12/31 04:35:09;;;;;;;8.50;6.10;;;27.20;77.60;;;;;;5124631;28;20356;-52
2022/12/31 04:37:35;;;;;;;10.57;5.68;;;27.20;77.90;;;;;;5124078;28;20027;-52
2022/12/31 04:40:03;;;;;;;11.02;5.97;;;27.20;77.50;;;;;;5123515;28;20107;-49
2022/12/31 04:42:30;;;;;;;11.40;7.95;;;27.20;77.90;;;;;;5123539;28;20016;-53
2022/12/31 04:44:57;;;;;;;10.93;8.13;;;27.20;77.40;;;;;;5124331;28;20342;-54
2022/12/31 04:47:24;;;;;;;11.10;6.88;;;27.20;77.40;;;;;;5123275;28;20076;-51
2022/12/31 04:49:50;;;;;;;11.32;7.50;;;27.20;77.60;;;;;;5113565;28;20137;-52
2022/12/31 04:52:17;;;;;;;11.93;7.10;;;27.20;77.40;;;;;;5123832;28;20389;-52
2022/12/31 04:54:44;;;;;;;12.68;6.38;;;27.20;77.50;;;;;;5124503;28;20043;-51
2022/12/31 04:57:10;;;;;;;12.88;5.95;;;27.10;77.50;;;;;;5126802;28;20070;-51
2022/12/31 04:59:37;;;;;;;11.73;5.72;;;27.10;77.50;;;;;;5124098;28;20204;-47
2022/12/31 05:02:03;;;;;;;10.63;5.50;;;27.10;77.60;;;;;;5123967;28;20036;-53
2022/12/31 05:04:30;;;;;;;12.32;5.07;;;27.10;77.70;;;;;;5138889;28;20015;-52
2022/12/31 05:06:56;;;;;;;13.10;5.30;;;27.10;77.80;;;;;;5125641;28;20040;-52
2022/12/31 05:09:26;;;;;;;10.35;5.07;;;27.10;77.80;;;;;;5127155;28;20051;-54
2022/12/31 05:11:52;;;;;;;8.02;4.30;;;27.00;77.70;;;;;;5127731;28;20072;-54
2022/12/31 05:14:20;;;;;;;7.90;4.75;;;27.10;77.80;;;;;;5127954;28;20019;-53
2022/12/31 05:16:47;;;;;;;7.03;4.20;;;27.10;77.80;;;;;;5127536;28;20114;-53
2022/12/31 05:19:13;;;;;;;7.30;4.72;;;27.00;77.70;;;;;;5127599;28;20292;-53
2022/12/31 05:21:40;;;;;;;7.07;4.57;;;27.00;78.00;;;;;;5127512;28;20028;-53
2022/12/31 05:24:07;;;;;;;10.02;4.68;;;27.00;77.60;;;;;;5127413;28;20031;-55
2022/12/31 05:26:33;;;;;;;7.05;4.25;;;27.00;77.60;;;;;;5127311;28;20034;-51
2022/12/31 05:29:00;;;;;;;8.07;4.90;;;27.00;77.60;;;;;;5127395;28;20322;-53
2022/12/31 05:31:27;;;;;;;6.07;4.28;;;27.00;77.60;;;;;;5127231;28;20094;-51
2022/12/31 05:33:53;;;;;;;9.80;4.30;;;27.00;77.60;;;;;;5108986;28;20212;-51
2022/12/31 05:36:20;;;;;;;5.57;4.03;;;27.00;77.50;;;;;;5127280;28;20034;-51
2022/12/31 05:38:46;;;;;;;10.30;4.03;;;27.00;77.60;;;;;;5126885;28;20037;-51
2022/12/31 05:41:13;;;;;;;8.93;4.00;;;27.00;77.60;;;;;;5127195;28;20263;-50
2022/12/31 05:43:39;;;;;;;5.90;3.67;;;26.90;77.60;;;;;;5127074;28;20024;-51
2022/12/31 05:46:06;;;;;;;6.97;3.35;;;26.90;77.60;;;;;;5126967;28;20034;-51
2022/12/31 05:48:33;;;;;;;7.80;4.15;;;26.90;77.70;;;;;;5127223;28;20034;-54
2022/12/31 05:50:59;;;;;;;6.57;3.70;;;26.90;77.80;;;;;;5127240;28;20019;-53
2022/12/31 05:53:26;;;;;;;9.00;4.38;;;26.90;77.90;;;;;;5126770;28;20071;-52
2022/12/31 05:55:52;;;;;;;9.63;4.65;;;26.90;77.90;;;;;;5127284;28;20047;-53
2022/12/31 05:58:19;;;;;;;10.57;4.28;;;26.90;77.80;;;;;;5126779;28;20023;-54
2022/12/31 06:00:45;;;;;;;8.52;3.95;;;26.90;77.90;;;;;;5126418;28;20069;-51
2022/12/31 06:03:12;;;;;;;7.32;4.18;;;26.90;77.90;;;;;;5125955;28;20030;-52
2022/12/31 06:05:43;;;;;;;10.25;3.97;;;26.90;77.80;;;;;;5127137;28;20042;-52
2022/12/31 06:08:11;;;;;;;9.05;6.22;;;26.90;77.90;;;;;;5126441;28;20027;-55
2022/12/31 06:10:38;;;;;;;8.35;6.90;;;26.80;77.90;;;;;;5126989;28;20028;-52
2022/12/31 06:13:04;;;;;;;8.25;6.25;;;26.80;77.90;;;;;;5126568;28;20047;-51
2022/12/31 06:15:31;;;;;;;9.10;5.47;;;26.80;77.80;;;;;;5126670;28;20066;-53
2022/12/31 06:17:57;;;;;;;8.82;4.55;;;26.80;77.90;;;;;;5125757;28;20035;-53
2022/12/31 06:20:24;;;;;;;12.07;5.10;;;26.80;78.00;;;;;;5126782;28;20018;-51
2022/12/31 06:22:51;;;;;;;6.65;4.55;;;26.80;77.90;;;;;;5126293;28;20042;-52
2022/12/31 06:25:17;;;;;;;10.98;4.97;;;26.80;77.90;;;;;;5126401;28;20023;-52
2022/12/31 06:27:44;;;;;;;10.45;4.70;;;26.80;77.90;;;;;;5126268;28;20058;-52
2022/12/31 06:30:11;;;;;;;6.93;4.75;;;26.70;78.40;;;;;;5126436;28;20031;-51
2022/12/31 06:32:39;;;;;;;10.77;7.82;;;26.70;77.90;;;;;;5126087;28;20223;-52
2022/12/31 06:35:06;;;;;;;20.20;14.68;;;26.70;77.90;;;;;;5126375;28;20309;-55
2022/12/31 06:37:33;;;;;;;28.08;23.67;;;26.70;78.10;;;;;;5125896;28;20328;-51
2022/12/31 06:40:00;;;;;;;29.35;26.35;;;26.70;78.20;;;;;;5126383;28;20121;-50
2022/12/31 06:42:30;;;;;;;29.80;23.58;;;26.70;78.30;;;;;;5125896;28;20020;-52
2022/12/31 06:44:58;;;;;;;25.23;21.05;;;26.70;78.30;;;;;;5126053;28;20304;-52
2022/12/31 06:47:24;;;;;;;23.75;20.60;;;26.60;78.40;;;;;;5125894;28;20222;-53
2022/12/31 06:49:51;;;;;;;21.13;18.20;;;26.60;78.40;;;;;;5125990;28;20026;-53
2022/12/31 06:52:18;;;;;;;23.38;18.00;;;26.60;78.40;;;;;;5125451;28;20051;-55
2022/12/31 06:54:45;;;;;;;27.98;20.38;;;26.60;78.40;;;;;;5125840;28;20068;-52
2022/12/31 06:57:12;;;;;;;30.58;24.13;;;26.60;78.50;;;;;;5125593;28;20026;-53
2022/12/31 06:59:39;;;;;;;29.77;21.60;;;26.60;78.60;;;;;;5125580;28;20090;-54
2022/12/31 07:02:27;;;;;;;24.23;18.27;;;26.60;78.70;;;;;;5125535;28;20245;-53
2022/12/31 07:05:20;;;;;;;24.58;21.52;;;26.60;78.60;;;;;;5125671;28;20027;-53
2022/12/31 07:07:49;;;;;;;35.67;27.23;;;26.60;78.70;;;;;;5125593;28;20318;-53
2022/12/31 07:10:21;;;;;;;31.17;23.13;;;26.60;78.70;;;;;;5125193;28;20242;-52
2022/12/31 07:13:06;;;;;;;;;;;26.60;78.80;;;;;;5125920;28;20091;-53
2022/12/31 07:16:17;;;;;;;45.08;35.63;;;26.60;78.60;;;;;;5125564;28;19911;-53
2022/12/31 07:18:51;;;;;;;58.67;46.50;;;26.50;78.60;;;;;;5104380;28;20065;-55
2022/12/31 07:21:24;;;;;;;59.55;49.97;;;26.50;78.60;;;;;;5124487;28;20031;-52
2022/12/31 07:23:51;;;;;;;46.28;37.40;;;26.50;78.70;;;;;;5117292;28;20035;-51
2022/12/31 07:26:46;;;;;;;43.85;32.45;;;26.50;78.70;;;;;;5125063;28;20118;-51
2022/12/31 07:29:51;;;;;;;33.13;27.17;;;26.50;78.70;;;;;;5123985;28;20039;-53
2022/12/31 07:32:51;;;;;;;27.52;22.52;;;26.50;78.80;;;;;;5121889;28;20051;-53
2022/12/31 07:35:44;;;;;;;29.00;24.05;;;26.50;78.70;;;;;;5125409;28;20023;-51
2022/12/31 07:38:32;;;;;;;27.50;22.83;;;26.50;78.80;;;;;;5124775;28;20042;-51
2022/12/31 07:41:19;;;;;;;27.63;21.52;;;26.50;78.80;;;;;;5125385;28;20193;-52
2022/12/31 07:43:51;;;;;;;27.85;22.92;;;26.40;78.70;;;;;;5124745;28;20024;-50
2022/12/31 07:46:33;;;;;;;29.45;24.33;;;26.40;78.90;;;;;;5124961;28;20024;-52
2022/12/31 07:49:00;;;;;;;33.28;26.70;;;26.40;79.00;;;;;;5124780;28;20060;-52
2022/12/31 07:51:27;;;;;;;35.35;31.35;;;26.40;79.00;;;;;;5124225;28;20055;-51
2022/12/31 07:53:54;;;;;;;38.25;34.22;;;26.40;79.20;;;;;;5124842;28;20028;-52
2022/12/31 07:56:21;;;;;;;33.58;30.08;;;26.40;79.30;;;;;;5124671;28;20347;-52
2022/12/31 07:58:47;;;;;;;30.27;24.60;;;26.30;79.40;;;;;;5124349;28;20037;-53
2022/12/31 08:01:25;;;;;;;24.17;21.38;;;26.30;79.50;;;;;;5123604;28;20031;-51
2022/12/31 08:04:04;;;;;;;23.60;18.60;;;26.30;79.50;;;;;;5123560;28;20028;-53
2022/12/31 08:06:37;;;;;;;23.38;17.05;;;26.30;79.70;;;;;;5124628;28;20331;-52
2022/12/31 08:09:03;;;;;;;;;;;26.30;79.80;;;;;;5124943;28;20031;-47
2022/12/31 08:11:45;;;;;;;19.85;14.60;;;26.30;79.90;;;;;;5124470;28;20247;-52
2022/12/31 08:14:13;;;;;;;19.63;13.65;;;26.30;80.20;;;;;;5124580;28;20027;-53
2022/12/31 08:16:40;;;;;;;17.60;12.55;;;26.30;80.10;;;;;;5124178;28;20028;-52
2022/12/31 08:19:25;;;;;;;16.20;12.10;;;26.30;80.10;;;;;;5124468;28;20018;-51
2022/12/31 08:22:06;;;;;;;22.90;15.75;;;26.20;80.20;;;;;;5124163;28;20073;-54
2022/12/31 08:24:54;;;;;;;23.33;18.60;;;26.20;80.30;;;;;;5124527;28;20033;-52
2022/12/31 08:27:59;;;;;;;26.63;23.45;;;26.20;80.40;;;;;;5123330;28;20067;-52
2022/12/31 08:30:53;;;;;;;32.90;28.70;;;26.20;80.40;;;;;;5119262;28;20023;-52
2022/12/31 08:33:31;;;;;;;32.45;25.08;;;26.20;80.60;;;;;;5124159;28;20066;-51
2022/12/31 08:36:09;;;;;;;25.30;20.73;;;26.10;80.50;;;;;;5124733;28;20073;-54
2022/12/31 08:38:35;;;;;;;26.02;20.27;;;26.10;80.60;;;;;;5124108;28;20103;-50
2022/12/31 08:41:02;;;;;;;26.05;21.20;;;26.10;80.80;;;;;;5125147;28;20012;-51
2022/12/31 08:43:48;;;;;;;26.92;20.33;;;26.10;80.80;;;;;;5128325;28;20032;-51
2022/12/31 08:46:37;;;;;;;23.58;17.45;;;26.10;80.90;;;;;;5128172;28;20026;-52
2022/12/31 08:49:04;;;;;;;22.33;17.17;;;26.10;80.90;;;;;;5128195;28;20028;-50
2022/12/31 08:51:30;;;;;;;20.35;15.63;;;26.10;81.00;;;;;;5127936;28;20061;-51
2022/12/31 08:53:57;;;;;;;20.83;14.65;;;26.10;81.00;;;;;;5128165;28;20049;-51
2022/12/31 08:56:29;;;;;;;18.77;12.57;;;26.00;81.10;;;;;;5128044;28;20160;-49
2022/12/31 08:59:21;;;;;;;22.63;12.25;;;26.00;81.00;;;;;;5128119;28;20032;-52
2022/12/31 09:01:53;;;;;;;22.38;11.77;;;26.00;81.40;;;;;;5127116;28;20381;-51
2022/12/31 09:04:38;;;;;;;17.52;10.70;;;26.00;81.40;;;;;;5127727;28;20015;-55
2022/12/31 09:07:08;;;;;;;14.00;9.10;;;26.00;81.60;;;;;;5127666;28;20027;-52
2022/12/31 09:10:03;;;;;;;17.17;9.40;;;26.00;81.80;;;;;;5128075;28;20047;-51
2022/12/31 09:12:43;;;;;;;16.50;9.02;;;26.00;81.90;;;;;;5126764;28;20234;-51
2022/12/31 09:15:29;;;;;;;20.33;8.70;;;25.90;81.90;;;;;;5127790;28;20031;-51
2022/12/31 09:17:56;;;;;;;13.10;7.45;;;25.90;82.10;;;;;;5127499;28;20028;-53
2022/12/31 09:20:26;;;;;;;18.20;7.55;;;25.90;82.20;;;;;;5128042;28;20027;-52
2022/12/31 09:22:54;;;;;;;12.23;6.85;;;25.90;82.30;;;;;;5127375;28;20324;-52
2022/12/31 09:25:23;;;;;;;12.80;7.60;;;25.90;82.40;;;;;;5127829;28;20035;-52
2022/12/31 09:28:17;;;;;;;15.13;6.90;;;25.90;82.40;;;;;;5127493;28;20042;-51
2022/12/31 09:31:16;;;;;;;13.98;7.13;;;25.90;82.70;;;;;;5126557;28;20047;-51
2022/12/31 09:34:11;;;;;;;13.82;7.45;;;25.90;82.70;;;;;;5124669;28;20043;-51
2022/12/31 09:37:02;;;;;;;16.48;8.00;;;25.90;82.60;;;;;;5117826;28;20031;-52
2022/12/31 09:39:42;;;;;;;13.25;7.53;;;25.90;82.30;;;;;;5126387;28;20031;-50
2022/12/31 09:42:36;;;;;;;11.40;7.07;;;25.80;82.30;;;;;;5126492;28;20290;-52
2022/12/31 09:45:30;;;;;;;12.60;6.90;;;25.80;82.40;;;;;;5122996;28;20031;-51
2022/12/31 09:48:02;;;;;;;10.45;5.70;;;25.80;82.50;;;;;;5125518;28;20368;-51
2022/12/31 09:50:32;;;;;;;10.00;5.95;;;25.80;82.50;;;;;;5126398;28;20035;-51
2022/12/31 09:53:48;;;;;;;11.15;5.50;;;25.80;82.50;;;;;;5125817;28;20217;-51
2022/12/31 09:56:42;;;;;;;7.80;4.88;;;25.80;82.60;;;;;;5032709;28;20085;-61
2022/12/31 09:59:26;;;;;;;10.97;5.20;;;25.80;82.60;;;;;;5122433;28;20024;-49
2022/12/31 10:02:34;;;;;;;9.50;4.55;;;25.80;82.70;;;;;;5126528;28;20035;-50
2022/12/31 10:05:00;;;;;;;9.27;4.30;;;25.70;82.60;;;;;;5023641;28;20037;-52
2022/12/31 10:07:42;;;;;;;6.72;3.90;;;25.70;82.70;;;;;;5106117;28;20044;-51
2022/12/31 10:10:38;;;;;;;9.43;4.60;;;25.70;82.80;;;;;;5126243;28;20035;-51
2022/12/31 10:13:16;;;;;;;8.57;4.72;;;25.70;82.80;;;;;;5105369;28;20044;-52
2022/12/31 10:16:07;;;;;;;9.75;4.07;;;25.70;82.90;;;;;;5126916;28;20036;-52
2022/12/31 10:18:52;;;;;;;9.18;5.00;;;25.70;83.00;;;;;;5126282;28;20043;-53
2022/12/31 10:21:40;;;;;;;8.18;4.05;;;25.70;83.10;;;;;;5126594;28;20027;-54
2022/12/31 10:24:18;;;;;;;8.25;4.40;;;25.70;83.20;;;;;;5126293;28;20011;-51
2022/12/31 10:27:20;;;;;;;7.60;4.40;;;25.70;83.30;;;;;;5125434;28;20028;-51
2022/12/31 10:29:58;;;;;;;9.15;4.13;;;25.60;83.10;;;;;;5106041;28;20060;-52
2022/12/31 10:32:38;;;;;;;12.40;4.30;;;25.60;83.20;;;;;;5117309;28;20049;-51
2022/12/31 10:35:45;;;;;;;9.65;4.30;;;25.60;83.20;;;;;;5122803;28;20011;-52
2022/12/31 10:38:26;;;;;;;9.07;4.38;;;25.60;83.20;;;;;;5110466;28;20050;-51
2022/12/31 10:41:24;;;;;;;10.95;4.45;;;25.60;83.20;;;;;;5125057;28;20066;-53
2022/12/31 10:44:13;;;;;;;13.85;4.70;;;25.60;83.20;;;;;;5116166;28;20031;-52
2022/12/31 10:47:14;;;;;;;8.30;4.50;;;25.60;83.50;;;;;;5112741;28;20019;-51
2022/12/31 10:50:04;;;;;;;6.30;4.15;;;25.60;83.30;;;;;;5125878;28;20028;-52
2022/12/31 10:52:54;;;;;;;8.20;4.10;;;25.60;83.30;;;;;;5125455;28;20359;-53
2022/12/31 10:55:45;;;;;;;10.88;4.18;;;25.50;83.30;;;;;;5125084;28;20039;-48
2022/12/31 10:58:42;;;;;;;10.80;4.60;;;25.50;83.30;;;;;;5105207;28;20028;-53
2022/12/31 11:01:23;;;;;;;9.63;4.70;;;25.50;83.30;;;;;;5105173;28;20047;-52
2022/12/31 11:04:14;;;;;;;9.02;4.55;;;25.50;83.40;;;;;;5104790;28;20020;-53
2022/12/31 11:07:11;;;;;;;15.98;5.32;;;25.50;83.40;;;;;;5105246;28;20028;-53
2022/12/31 11:09:50;;;;;;;14.85;5.03;;;25.50;83.60;;;;;;5105145;28;20193;-53
2022/12/31 11:13:15;;;;;;;11.68;4.90;;;25.50;83.60;;;;;;5105173;28;20090;-52
2022/12/31 11:15:56;;;;;;;15.48;5.60;;;25.50;83.70;;;;;;5060461;28;20430;-53
2022/12/31 11:18:30;;;;;;;17.95;4.95;;;25.40;83.80;;;;;;5125310;28;20038;-54
2022/12/31 11:21:26;;;;;;;13.25;5.18;;;25.40;83.90;;;;;;5125779;28;20039;-53
2022/12/31 11:24:17;;;;;;;17.67;4.85;;;25.40;84.00;;;;;;5124777;28;20103;-53
2022/12/31 11:27:05;;;;;;;20.15;5.80;;;25.40;84.10;;;;;;5125169;28;20216;-54
2022/12/31 11:30:09;;;;;;;14.73;5.72;;;25.40;84.20;;;;;;5125356;28;20027;-53
2022/12/31 11:33:02;;;;;;;11.23;5.82;;;25.40;84.20;;;;;;5125029;28;20027;-53
2022/12/31 11:35:55;;;;;;;13.35;5.20;;;25.40;84.20;;;;;;5125300;28;20031;-55
2022/12/31 11:38:32;;;;;;;17.42;5.43;;;25.50;84.20;;;;;;5123630;28;20039;-52
2022/12/31 11:41:34;;;;;;;12.35;5.45;;;25.50;84.20;;;;;;5124801;27;20039;-55
2022/12/31 11:44:16;;;;;;;14.48;5.47;;;25.50;84.10;;;;;;5085907;28;20036;-51
2022/12/31 11:47:00;;;;;;;12.07;5.25;;;25.50;84.00;;;;;;5104479;28;20077;-53
2022/12/31 11:49:47;;;;;;;18.33;5.15;;;25.50;84.00;;;;;;5104400;28;20024;-56
2022/12/31 11:52:27;;;;;;;17.52;5.20;;;25.60;84.00;;;;;;5104084;28;20044;-53
2022/12/31 11:55:18;;;;;;;13.73;5.25;;;25.60;83.90;;;;;;5113207;28;20307;-51
2022/12/31 11:57:52;;;;;;;13.57;5.03;;;25.70;84.00;;;;;;5104111;28;20040;-55
2022/12/31 12:00:25;;;;;;;13.90;4.75;;;25.70;83.90;;;;;;5104554;28;20024;-52
2022/12/31 12:03:12;;;;;;;10.50;4.50;;;25.80;83.60;;;;;;5106742;28;20060;-54
2022/12/31 12:05:39;;;;;;;16.75;4.97;;;25.80;83.50;;;;;;5117226;28;20084;-55
2022/12/31 12:08:07;;;;;;;14.25;5.40;;;25.90;83.50;;;;;;5115733;28;20059;-55
2022/12/31 12:10:47;;;;;;;13.63;4.70;;;25.90;83.30;;;;;;5112964;28;20051;-58
2022/12/31 12:13:17;;;;;;;11.27;4.53;;;26.00;83.30;;;;;;5103941;28;20044;-54
2022/12/31 12:15:55;;;;;;;19.33;4.85;;;26.00;83.20;;;;;;5104000;28;20047;-55
2022/12/31 12:18:50;;;;;;;19.40;5.10;;;26.00;83.10;;;;;;5085899;28;20081;-54
2022/12/31 12:21:22;;;;;;;11.60;4.55;;;26.10;82.90;;;;;;5115516;28;20023;-56
2022/12/31 12:23:56;;;;;;;12.57;4.45;;;26.10;82.80;;;;;;5111329;28;20028;-55
2022/12/31 12:26:34;;;;;;;14.82;4.75;;;26.20;82.80;;;;;;5095465;28;20074;-51
2022/12/31 12:29:21;;;;;;;13.10;5.20;;;26.20;82.90;;;;;;5114049;28;20051;-52
2022/12/31 12:32:06;;;;;;;16.02;4.85;;;26.20;82.70;;;;;;5095058;28;20034;-51
2022/12/31 12:34:36;;;;;;;13.55;4.88;;;26.30;82.90;;;;;;5103898;28;20027;-55
2022/12/31 12:37:03;;;;;;;13.60;5.00;;;26.30;83.00;;;;;;5103063;28;20028;-53
2022/12/31 12:39:33;;;;;;;10.07;4.20;;;26.30;82.90;;;;;;5105158;28;20031;-55
2022/12/31 12:42:17;;;;;;;13.95;4.72;;;26.40;83.10;;;;;;5114307;28;20320;-58
2022/12/31 12:44:46;;;;;;;13.60;4.53;;;26.40;83.20;;;;;;5104020;28;20299;-55
2022/12/31 12:47:18;;;;;;;12.75;5.18;;;26.40;83.30;;;;;;5103704;28;20217;-54
2022/12/31 12:49:48;;;;;;;11.63;4.63;;;26.40;83.40;;;;;;5106638;28;20031;-53
2022/12/31 12:52:26;;;;;;;13.32;4.85;;;26.40;83.40;;;;;;5111495;28;20048;-55
2022/12/31 12:55:22;;;;;;;12.18;4.43;;;26.50;83.40;;;;;;5104676;28;20089;-56
2022/12/31 12:57:53;;;;;;;11.88;4.43;;;26.50;83.00;;;;;;5097871;28;20063;-58
2022/12/31 13:00:22;;;;;;;15.25;4.45;;;26.50;83.00;;;;;;5112153;28;20055;-55
2022/12/31 13:03:07;;;;;;;13.73;4.22;;;26.60;83.00;;;;;;5113518;28;20020;-58
2022/12/31 13:05:39;;;;;;;14.60;4.68;;;26.60;83.00;;;;;;5114735;28;20032;-55
2022/12/31 13:08:20;;;;;;;;;;;26.60;83.10;;;;;;5124204;28;20058;-57
2022/12/31 13:11:10;;;;;;;14.15;4.35;;;26.60;83.00;;;;;;5124529;28;20229;-54
2022/12/31 13:14:11;;;;;;;7.78;3.72;;;26.60;83.10;;;;;;5116751;28;20048;-54
2022/12/31 13:16:59;;;;;;;12.32;4.40;;;26.70;83.20;;;;;;5010657;28;20426;-55
2022/12/31 13:19:34;;;;;;;14.02;4.40;;;26.70;83.30;;;;;;5105786;28;20032;-55
2022/12/31 13:22:24;;;;;;;10.52;4.25;;;26.70;83.10;;;;;;5116342;28;20032;-55
2022/12/31 13:25:27;;;;;;;11.93;4.32;;;26.80;83.20;;;;;;5111964;28;20016;-51
2022/12/31 13:27:59;;;;;;;9.80;4.22;;;26.80;83.30;;;;;;5112895;28;20050;-56